createdAt,value
2018-05-19T00:01:47.448Z,0.60
2018-05-19T00:04:15.768Z,0.60
2018-05-19T00:06:44.052Z,0.60
2018-05-19T00:09:13.079Z,0.70
2018-05-19T00:11:41.379Z,0.60
2018-05-19T00:14:09.627Z,0.70
2018-05-19T00:16:37.910Z,0.60
2018-05-19T00:19:06.220Z,0.60
2018-05-19T00:21:35.526Z,0.60
2018-05-19T00:24:03.817Z,0.70
2018-05-19T00:26:32.071Z,0.60
2018-05-19T00:29:00.315Z,0.70
2018-05-19T00:31:28.623Z,0.60
2018-05-19T00:33:56.866Z,0.60
2018-05-19T00:36:25.120Z,0.60
2018-05-19T00:38:54.171Z,0.70
2018-05-19T00:41:22.425Z,0.60
2018-05-19T00:43:50.670Z,0.60
2018-05-19T00:46:19.700Z,0.60
2018-05-19T00:48:47.942Z,0.60
2018-05-19T00:51:16.960Z,0.60
2018-05-19T00:53:45.251Z,0.60
2018-05-19T00:56:13.496Z,0.60
2018-05-19T00:58:42.512Z,0.60
2018-05-19T01:01:10.786Z,0.60
2018-05-19T01:03:39.076Z,0.70
2018-05-19T01:06:07.309Z,0.60
2018-05-19T01:08:36.324Z,0.60
2018-05-19T01:11:04.576Z,0.70
2018-05-19T01:13:32.877Z,0.60
2018-05-19T01:16:01.945Z,0.70
2018-05-19T01:18:30.237Z,0.70
2018-05-19T01:20:59.339Z,0.60
2018-05-19T01:23:28.396Z,0.70
2018-05-19T01:25:56.633Z,0.70
2018-05-19T01:28:24.894Z,0.70
2018-05-19T01:30:53.944Z,0.60
2018-05-19T01:33:22.187Z,0.70
2018-05-19T01:35:50.422Z,0.70
2018-05-19T01:38:19.432Z,0.67
2018-05-19T01:40:48.450Z,0.70
2018-05-19T01:43:16.734Z,0.70
2018-05-19T01:45:44.975Z,0.70
2018-05-19T01:48:14.032Z,0.67
2018-05-19T01:50:42.275Z,0.60
2018-05-19T01:53:10.568Z,0.70
2018-05-19T01:55:38.823Z,0.70
2018-05-19T01:58:07.060Z,0.70
2018-05-19T02:00:35.372Z,0.70
2018-05-19T02:03:04.412Z,0.70
2018-05-19T02:05:32.723Z,0.60
2018-05-19T02:08:00.955Z,0.70
2018-05-19T02:10:29.193Z,0.70
2018-05-19T02:12:57.487Z,0.70
2018-05-19T02:15:25.771Z,0.63
2018-05-19T02:17:54.060Z,0.60
2018-05-19T02:20:22.291Z,0.60
2018-05-19T02:22:51.356Z,0.70
2018-05-19T02:25:19.632Z,0.70
2018-05-19T02:27:47.884Z,0.70
2018-05-19T02:30:16.134Z,0.60
2018-05-19T02:32:44.377Z,0.60
2018-05-19T02:35:12.664Z,0.70
2018-05-19T02:37:40.907Z,0.67
2018-05-19T02:40:09.199Z,0.70
2018-05-19T02:42:37.519Z,0.70
2018-05-19T02:45:05.759Z,0.70
2018-05-19T02:47:34.415Z,0.70
2018-05-19T02:50:02.673Z,0.70
2018-05-19T02:52:30.906Z,0.70
2018-05-19T02:54:59.163Z,0.70
2018-05-19T02:57:27.453Z,0.70
2018-05-19T02:59:55.753Z,0.70
2018-05-19T03:02:24.761Z,0.70
2018-05-19T03:04:53.048Z,0.70
2018-05-19T03:07:21.326Z,0.60
2018-05-19T03:09:49.573Z,0.70
2018-05-19T03:12:18.584Z,0.70
2018-05-19T03:14:47.627Z,0.63
2018-05-19T03:17:16.004Z,0.70
2018-05-19T03:19:44.235Z,0.67
2018-05-19T03:22:13.287Z,0.60
2018-05-19T03:24:41.511Z,0.70
2018-05-19T03:27:09.810Z,0.70
2018-05-19T03:29:38.098Z,0.70
2018-05-19T03:32:06.336Z,0.63
2018-05-19T03:34:34.621Z,0.70
2018-05-19T03:37:02.863Z,0.70
2018-05-19T03:39:31.147Z,0.70
2018-05-19T03:41:59.451Z,0.70
2018-05-19T03:44:27.713Z,0.70
2018-05-19T03:46:56.767Z,0.70
2018-05-19T03:49:25.047Z,0.70
2018-05-19T03:51:53.341Z,0.70
2018-05-19T03:54:21.578Z,0.70
2018-05-19T03:56:49.825Z,0.70
2018-05-19T03:59:30.063Z,0.70
2018-05-19T04:02:10.935Z,0.60
2018-05-19T04:04:39.181Z,0.70
2018-05-19T04:07:07.425Z,0.70
2018-05-19T04:09:35.680Z,0.70
2018-05-19T04:12:03.935Z,0.70
2018-05-19T04:14:32.182Z,0.70
2018-05-19T04:17:00.423Z,0.70
2018-05-19T04:19:28.727Z,0.70
2018-05-19T04:21:56.956Z,0.70
2018-05-19T04:24:26.004Z,0.70
2018-05-19T04:26:54.244Z,0.70
2018-05-19T04:29:22.492Z,0.70
2018-05-19T04:31:50.792Z,0.70
2018-05-19T04:34:19.786Z,0.70
2018-05-19T04:36:48.040Z,0.70
2018-05-19T04:39:17.101Z,0.70
2018-05-19T04:41:45.351Z,0.63
2018-05-19T04:44:13.637Z,0.70
2018-05-19T04:46:41.933Z,0.70
2018-05-19T04:49:10.203Z,0.60
2018-05-19T04:51:38.477Z,0.70
2018-05-19T04:54:06.785Z,0.60
2018-05-19T04:56:35.073Z,0.70
2018-05-19T04:59:03.323Z,0.70
2018-05-19T05:01:32.329Z,0.60
2018-05-19T05:04:00.672Z,0.70
2018-05-19T05:06:28.925Z,0.70
2018-05-19T05:08:57.230Z,0.70
2018-05-19T05:11:25.476Z,0.70
2018-05-19T05:13:54.508Z,0.70
2018-05-19T05:16:22.804Z,0.70
2018-05-19T05:18:51.088Z,0.70
2018-05-19T05:21:19.336Z,0.70
2018-05-19T05:23:48.304Z,0.60
2018-05-19T05:26:17.345Z,0.70
2018-05-19T05:28:45.620Z,0.70
2018-05-19T05:31:13.868Z,0.70
2018-05-19T05:33:42.152Z,0.63
2018-05-19T05:36:10.452Z,0.70
2018-05-19T05:38:38.686Z,0.70
2018-05-19T05:41:06.935Z,0.70
2018-05-19T05:43:35.242Z,0.60
2018-05-19T05:46:03.487Z,0.53
2018-05-19T05:48:32.515Z,0.60
2018-05-19T05:51:00.805Z,0.70
2018-05-19T05:53:29.045Z,0.60
2018-05-19T05:55:58.058Z,0.70
2018-05-19T05:58:26.350Z,0.70
2018-05-19T06:00:54.633Z,0.60
2018-05-19T06:03:22.872Z,0.70
2018-05-19T06:05:51.925Z,0.70
2018-05-19T06:08:20.196Z,0.60
2018-05-19T06:10:48.475Z,0.60
2018-05-19T06:13:16.712Z,0.60
2018-05-19T06:15:50.892Z,0.60
2018-05-19T06:18:19.167Z,0.60
2018-05-19T06:20:47.468Z,0.60
2018-05-19T06:23:16.524Z,0.60
2018-05-19T06:25:44.772Z,0.70
2018-05-19T06:28:13.063Z,0.60
2018-05-19T06:30:41.317Z,0.70
2018-05-19T06:33:09.967Z,0.67
2018-05-19T06:35:38.219Z,0.60
2018-05-19T06:38:06.472Z,0.60
2018-05-19T06:40:34.744Z,0.60
2018-05-19T06:43:02.988Z,0.60
2018-05-19T06:45:32.062Z,0.60
2018-05-19T06:48:00.406Z,0.60
2018-05-19T06:50:28.599Z,0.60
2018-05-19T06:52:56.882Z,0.60
2018-05-19T06:55:25.164Z,0.60
2018-05-19T06:57:53.461Z,0.60
2018-05-19T07:00:21.701Z,0.60
2018-05-19T07:02:49.983Z,0.60
2018-05-19T07:05:18.229Z,0.60
2018-05-19T07:07:46.530Z,0.60
2018-05-19T07:10:14.768Z,0.60
2018-05-19T07:12:43.030Z,0.60
2018-05-19T07:15:12.086Z,0.60
2018-05-19T07:17:40.332Z,0.60
2018-05-19T07:20:08.612Z,0.60
2018-05-19T07:22:36.889Z,0.60
2018-05-19T07:25:05.153Z,0.60
2018-05-19T07:27:33.432Z,0.60
2018-05-19T07:30:02.428Z,0.60
2018-05-19T07:32:30.683Z,0.60
2018-05-19T07:34:59.715Z,0.60
2018-05-19T07:37:27.957Z,0.60
2018-05-19T07:39:57.038Z,0.60
2018-05-19T07:42:25.269Z,0.60
2018-05-19T07:44:53.575Z,0.60
2018-05-19T07:47:21.843Z,0.60
2018-05-19T07:49:51.148Z,0.60
2018-05-19T07:52:19.396Z,0.60
2018-05-19T07:54:47.643Z,0.60
2018-05-19T07:57:15.909Z,0.60
2018-05-19T07:59:44.923Z,0.60
2018-05-19T08:02:13.213Z,0.60
2018-05-19T08:04:41.494Z,0.60
2018-05-19T08:07:09.742Z,0.60
2018-05-19T08:09:38.799Z,0.60
2018-05-19T08:12:07.058Z,0.53
2018-05-19T08:14:36.045Z,0.60
2018-05-19T08:17:04.300Z,0.60
2018-05-19T08:19:32.574Z,0.60
2018-05-19T08:22:00.837Z,0.60
2018-05-19T08:24:29.851Z,0.60
2018-05-19T08:26:58.146Z,0.60
2018-05-19T08:29:26.488Z,0.60
2018-05-19T08:31:55.590Z,0.60
2018-05-19T08:34:24.622Z,0.50
2018-05-19T08:36:52.877Z,0.60
2018-05-19T08:39:21.132Z,0.60
2018-05-19T08:41:50.179Z,0.60
2018-05-19T08:44:18.485Z,0.60
2018-05-19T08:46:46.771Z,0.50
2018-05-19T08:49:15.008Z,0.60
2018-05-19T08:51:43.331Z,0.60
2018-05-19T08:54:11.609Z,0.60
2018-05-19T08:56:39.902Z,0.60
2018-05-19T08:59:08.910Z,0.60
2018-05-19T09:01:37.184Z,0.50
2018-05-19T09:04:05.481Z,0.60
2018-05-19T09:06:33.888Z,0.50
2018-05-19T09:09:02.967Z,0.60
2018-05-19T09:11:31.299Z,0.60
2018-05-19T09:14:00.351Z,0.50
2018-05-19T09:16:28.647Z,0.60
2018-05-19T09:18:56.908Z,0.50
2018-05-19T09:21:25.189Z,0.60
2018-05-19T09:23:53.445Z,0.57
2018-05-19T09:26:21.732Z,0.50
2018-05-19T09:28:50.063Z,0.50
2018-05-19T09:31:19.124Z,0.60
2018-05-19T09:33:47.413Z,0.50
2018-05-19T09:36:15.668Z,0.50
2018-05-19T09:38:43.958Z,0.50
2018-05-19T09:41:12.196Z,0.60
2018-05-19T09:43:40.486Z,0.53
2018-05-19T09:46:08.792Z,0.50
2018-05-19T09:48:37.089Z,0.50
2018-05-19T09:51:06.119Z,0.50
2018-05-19T09:53:34.414Z,0.50
2018-05-19T09:56:02.700Z,0.50
2018-05-19T09:58:31.714Z,0.60
2018-05-19T10:01:00.014Z,0.50
2018-05-19T10:03:29.067Z,0.50
2018-05-19T10:05:57.316Z,0.50
2018-05-19T10:08:25.551Z,0.50
2018-05-19T10:10:54.578Z,0.47
2018-05-19T10:13:22.871Z,0.50
2018-05-19T10:15:51.128Z,0.50
2018-05-19T10:18:19.395Z,0.50
2018-05-19T10:20:48.400Z,0.50
2018-05-19T10:23:16.663Z,0.50
2018-05-19T10:25:45.739Z,0.60
2018-05-19T10:28:14.011Z,0.50
2018-05-19T10:30:42.290Z,0.50
2018-05-19T10:33:10.546Z,0.60
2018-05-19T10:35:38.815Z,0.50
2018-05-19T10:38:07.122Z,0.50
2018-05-19T10:40:35.369Z,0.50
2018-05-19T10:43:03.634Z,0.50
2018-05-19T10:45:31.921Z,0.50
2018-05-19T10:48:00.631Z,0.50
2018-05-19T10:50:28.927Z,0.43
2018-05-19T10:52:57.197Z,0.50
2018-05-19T10:55:25.456Z,0.40
2018-05-19T10:57:53.738Z,0.50
2018-05-19T11:00:21.997Z,0.47
2018-05-19T11:02:50.273Z,0.50
2018-05-19T11:05:18.523Z,0.50
2018-05-19T11:07:46.834Z,0.50
2018-05-19T11:10:15.079Z,0.50
2018-05-19T11:12:43.376Z,0.50
2018-05-19T11:15:11.652Z,0.50
2018-05-19T11:17:39.911Z,0.40
2018-05-19T11:20:08.212Z,0.40
2018-05-19T11:22:36.502Z,0.50
2018-05-19T11:25:04.724Z,0.40
2018-05-19T11:27:33.032Z,0.40
2018-05-19T11:30:01.276Z,0.40
2018-05-19T11:32:30.307Z,0.40
2018-05-19T11:34:58.582Z,0.30
2018-05-19T11:37:26.888Z,0.40
2018-05-19T11:39:55.215Z,0.40
2018-05-19T11:42:24.249Z,0.40
2018-05-19T11:44:53.322Z,0.40
2018-05-19T11:47:21.604Z,0.40
2018-05-19T11:49:49.906Z,0.40
2018-05-19T11:52:18.190Z,0.40
2018-05-19T11:54:46.435Z,0.40
2018-05-19T11:57:14.673Z,0.40
2018-05-19T11:59:43.745Z,0.40
2018-05-19T12:02:11.981Z,0.40
2018-05-19T12:04:40.256Z,0.50
2018-05-19T12:07:08.504Z,0.40
2018-05-19T12:09:37.563Z,0.40
2018-05-19T12:12:06.802Z,0.47
2018-05-19T12:14:34.925Z,0.40
2018-05-19T12:17:03.188Z,0.40
2018-05-19T12:19:31.482Z,0.40
2018-05-19T12:21:59.747Z,0.30
2018-05-19T12:24:28.007Z,0.40
2018-05-19T12:26:56.305Z,0.40
2018-05-19T12:29:24.540Z,0.40
2018-05-19T12:31:52.829Z,0.50
2018-05-19T12:34:21.115Z,0.50
2018-05-19T12:36:49.379Z,0.50
2018-05-19T12:39:17.681Z,0.40
2018-05-19T12:41:45.908Z,0.40
2018-05-19T12:44:14.931Z,0.40
2018-05-19T12:46:43.179Z,0.50
2018-05-19T12:49:12.216Z,0.40
2018-05-19T12:51:40.494Z,0.40
2018-05-19T12:54:08.747Z,0.40
2018-05-19T12:56:37.042Z,0.50
2018-05-19T12:59:05.359Z,0.50
2018-05-19T13:01:33.640Z,0.40
2018-05-19T13:04:01.903Z,0.40
2018-05-19T13:06:30.151Z,0.30
2018-05-19T13:08:58.460Z,0.40
2018-05-19T13:11:27.477Z,0.40
2018-05-19T13:13:55.737Z,0.40
2018-05-19T13:16:24.048Z,0.40
2018-05-19T13:18:53.055Z,0.40
2018-05-19T13:21:21.338Z,0.40
2018-05-19T13:23:49.598Z,0.40
2018-05-19T13:28:51.556Z,0.40
2018-05-19T13:31:19.864Z,0.40
2018-05-19T13:33:48.943Z,0.43
2018-05-19T13:36:17.182Z,0.40
2018-05-19T13:38:45.497Z,0.40
2018-05-19T13:41:13.743Z,0.40
2018-05-19T13:43:42.018Z,0.40
2018-05-19T13:46:10.294Z,0.50
2018-05-19T13:48:38.611Z,0.40
2018-05-19T13:51:06.853Z,0.40
2018-05-19T13:53:35.107Z,0.40
2018-05-19T13:56:03.364Z,0.40
2018-05-19T13:58:31.667Z,0.40
2018-05-19T14:00:59.915Z,0.40
2018-05-19T14:03:28.202Z,0.40
2018-05-19T14:05:56.507Z,0.40
2018-05-19T14:08:24.752Z,0.40
2018-05-19T14:10:53.017Z,0.40
2018-05-19T14:13:21.307Z,0.40
2018-05-19T14:15:49.603Z,0.40
2018-05-19T14:18:17.844Z,0.50
2018-05-19T14:20:46.918Z,0.40
2018-05-19T14:23:15.202Z,0.30
2018-05-19T14:25:43.490Z,0.40
2018-05-19T14:28:12.549Z,0.40
2018-05-19T14:30:40.797Z,0.30
2018-05-19T14:33:09.056Z,0.30
2018-05-19T14:35:37.307Z,0.50
2018-05-19T14:38:06.339Z,0.40
2018-05-19T14:40:34.626Z,0.45
2018-05-19T14:43:02.988Z,0.40
2018-05-19T14:45:31.174Z,0.40
2018-05-19T14:47:59.449Z,0.47
2018-05-19T14:50:27.697Z,0.40
2018-05-19T14:52:56.768Z,0.40
2018-05-19T14:55:25.022Z,0.40
2018-05-19T14:57:53.325Z,0.40
2018-05-19T15:00:21.628Z,0.40
2018-05-19T15:02:50.691Z,0.50
2018-05-19T15:05:18.936Z,0.40
2018-05-19T15:07:47.204Z,0.47
2018-05-19T15:10:15.505Z,0.40
2018-05-19T15:12:43.780Z,0.40
2018-05-19T15:15:12.057Z,0.40
2018-05-19T15:17:40.333Z,0.40
2018-05-19T15:20:08.577Z,0.40
2018-05-19T15:22:37.871Z,0.40
2018-05-19T15:25:06.922Z,0.37
2018-05-19T15:27:35.179Z,0.40
2018-05-19T15:30:03.484Z,0.40
2018-05-19T15:32:31.742Z,0.40
2018-05-19T15:35:00.034Z,0.40
2018-05-19T15:37:28.333Z,0.40
2018-05-19T15:39:56.624Z,0.30
2018-05-19T15:42:25.688Z,0.40
2018-05-19T15:44:55.475Z,0.30
2018-05-19T15:47:23.704Z,0.40
2018-05-19T15:49:52.740Z,0.40
2018-05-19T15:52:21.041Z,0.40
2018-05-19T15:54:49.288Z,0.50
2018-05-19T15:57:17.532Z,0.40
2018-05-19T15:59:46.547Z,0.50
2018-05-19T16:02:14.830Z,0.50
2018-05-19T16:04:43.083Z,0.40
2018-05-19T16:07:12.109Z,0.50
2018-05-19T16:09:40.360Z,0.40
2018-05-19T16:12:08.673Z,0.40
2018-05-19T16:14:36.988Z,0.40
2018-05-19T16:17:05.302Z,0.50
2018-05-19T16:19:33.553Z,0.40
2018-05-19T16:22:01.817Z,0.40
2018-05-19T16:24:30.114Z,0.40
2018-05-19T16:26:59.164Z,0.40
2018-05-19T16:29:27.464Z,0.50
2018-05-19T16:31:55.753Z,0.50
2018-05-19T16:34:24.019Z,0.40
2018-05-19T16:36:52.275Z,0.40
2018-05-19T16:39:20.603Z,0.40
2018-05-19T16:41:48.829Z,0.40
2018-05-19T16:44:17.077Z,0.40
2018-05-19T16:46:45.316Z,0.50
2018-05-19T16:49:13.620Z,0.40
2018-05-19T16:51:42.714Z,0.50
2018-05-19T16:54:11.723Z,0.50
2018-05-19T16:56:40.026Z,0.40
2018-05-19T16:59:08.280Z,0.50
2018-05-19T17:01:36.562Z,0.40
2018-05-19T17:04:04.836Z,0.50
2018-05-19T17:06:33.083Z,0.50
2018-05-19T17:09:02.097Z,0.50
2018-05-19T17:11:30.357Z,0.50
2018-05-19T17:13:59.418Z,0.50
2018-05-19T17:16:27.654Z,0.47
2018-05-19T17:18:55.960Z,0.43
2018-05-19T17:21:24.272Z,0.50
2018-05-19T17:23:52.521Z,0.50
2018-05-19T17:26:22.346Z,0.50
2018-05-19T17:28:50.593Z,0.50
2018-05-19T17:31:18.898Z,0.50
2018-05-19T17:33:47.135Z,0.40
2018-05-19T17:36:15.460Z,0.50
2018-05-19T17:38:43.766Z,0.40
2018-05-19T17:41:12.783Z,0.50
2018-05-19T17:43:41.080Z,0.50
2018-05-19T17:46:09.358Z,0.50
2018-05-19T17:48:37.617Z,0.50
2018-05-19T17:51:06.342Z,0.50
2018-05-19T17:53:34.594Z,0.50
2018-05-19T17:56:02.913Z,0.40
2018-05-19T17:58:31.214Z,0.50
2018-05-19T18:01:00.265Z,0.47
2018-05-19T18:03:28.530Z,0.50
2018-05-19T18:05:56.818Z,0.50
2018-05-19T18:08:25.106Z,0.43
2018-05-19T18:10:53.367Z,0.50
2018-05-19T18:13:21.687Z,0.50
2018-05-19T18:15:49.957Z,0.47
2018-05-19T18:18:18.961Z,0.50
2018-05-19T18:20:47.987Z,0.50
2018-05-19T18:23:16.211Z,0.50
2018-05-19T18:25:44.511Z,0.50
2018-05-19T18:28:13.553Z,0.50
2018-05-19T18:30:41.842Z,0.50
2018-05-19T18:33:10.193Z,0.60
2018-05-19T18:35:38.532Z,0.60
2018-05-19T18:38:06.762Z,0.50
2018-05-19T18:40:35.063Z,0.50
2018-05-19T18:43:03.359Z,0.50
2018-05-19T18:45:31.611Z,0.50
2018-05-19T18:47:59.881Z,0.50
2018-05-19T18:50:28.171Z,0.50
2018-05-19T18:53:00.249Z,0.60
2018-05-19T18:55:28.526Z,0.50
2018-05-19T18:57:56.822Z,0.50
2018-05-19T19:00:25.894Z,0.53
2018-05-19T19:02:54.199Z,0.60
2018-05-19T19:05:23.238Z,0.50
2018-05-19T19:07:51.546Z,0.57
2018-05-19T19:10:19.831Z,0.50
2018-05-19T19:12:48.073Z,0.60
2018-05-19T19:15:16.368Z,0.50
2018-05-19T19:17:44.654Z,0.57
2018-05-19T19:20:12.944Z,0.50
2018-05-19T19:22:41.238Z,0.60
2018-05-19T19:25:10.313Z,0.50
2018-05-19T19:27:38.604Z,0.50
2018-05-19T19:30:07.645Z,0.60
2018-05-19T19:32:36.001Z,0.60
2018-05-19T19:35:04.216Z,0.60
2018-05-19T19:37:32.459Z,0.60
2018-05-19T19:40:00.747Z,0.50
2018-05-19T19:42:29.047Z,0.53
2018-05-19T19:44:57.280Z,0.60
2018-05-19T19:47:25.590Z,0.50
2018-05-19T19:49:53.835Z,0.60
2018-05-19T19:52:22.858Z,0.60
2018-05-19T19:54:51.107Z,0.60
2018-05-19T19:57:19.359Z,0.60
2018-05-19T19:59:48.386Z,0.60
2018-05-19T20:02:16.663Z,0.60
2018-05-19T20:04:44.909Z,0.50
2018-05-19T20:07:13.919Z,0.57
2018-05-19T20:09:42.982Z,0.60
2018-05-19T20:12:11.284Z,0.60
2018-05-19T20:14:40.355Z,0.50
2018-05-19T20:17:08.598Z,0.60
2018-05-19T20:19:36.907Z,0.60
2018-05-19T20:22:05.146Z,0.60
2018-05-19T20:24:33.423Z,0.60
2018-05-19T20:27:01.725Z,0.60
2018-05-19T20:29:30.000Z,0.50
2018-05-19T20:31:58.271Z,0.60
2018-05-19T20:34:26.540Z,0.60
2018-05-19T20:36:54.846Z,0.60
2018-05-19T20:39:23.093Z,0.50
2018-05-19T20:41:51.386Z,0.60
2018-05-19T20:44:19.622Z,0.60
2018-05-19T20:46:47.939Z,0.60
2018-05-19T20:49:16.189Z,0.60
2018-05-19T20:51:44.512Z,0.53
2018-05-19T20:54:14.267Z,0.60
2018-05-19T20:56:42.621Z,0.60
2018-05-19T20:59:10.865Z,0.60
2018-05-19T21:01:39.194Z,0.60
2018-05-19T21:04:08.278Z,0.60
2018-05-19T21:06:37.341Z,0.53
2018-05-19T21:09:05.631Z,0.60
2018-05-19T21:11:33.916Z,0.60
2018-05-19T21:14:02.231Z,0.50
2018-05-19T21:16:30.494Z,0.60
2018-05-19T21:18:59.643Z,0.50
2018-05-19T21:21:27.792Z,0.60
2018-05-19T21:23:56.128Z,0.53
2018-05-19T21:26:25.152Z,0.60
2018-05-19T21:28:53.465Z,0.60
2018-05-19T21:31:21.721Z,0.60
2018-05-19T21:33:49.997Z,0.50
2018-05-19T21:36:18.289Z,0.60
2018-05-19T21:38:46.545Z,0.57
2018-05-19T21:41:14.810Z,0.60
2018-05-19T21:43:43.068Z,0.60
2018-05-19T21:46:12.102Z,0.60
2018-05-19T21:48:40.390Z,0.60
2018-05-19T21:51:09.013Z,0.60
2018-05-19T21:53:37.262Z,0.60
2018-05-19T21:56:05.512Z,0.50
2018-05-19T21:58:33.771Z,0.50
2018-05-19T22:01:02.840Z,0.60
2018-05-19T22:03:31.093Z,0.60
2018-05-19T22:05:59.353Z,0.60
2018-05-19T22:08:27.621Z,0.60
2018-05-19T22:10:55.930Z,0.53
2018-05-19T22:13:24.217Z,0.50
2018-05-19T22:15:53.231Z,0.60
2018-05-19T22:18:22.314Z,0.60
2018-05-19T22:20:52.061Z,0.60
2018-05-19T22:23:20.379Z,0.60
2018-05-19T22:25:48.667Z,0.50
2018-05-19T22:28:16.919Z,0.50
2018-05-19T22:30:45.191Z,0.60
2018-05-19T22:33:13.435Z,0.53
2018-05-19T22:35:41.733Z,0.60
2018-05-19T22:38:10.014Z,0.60
2018-05-19T22:40:38.311Z,0.50
2018-05-19T22:43:06.564Z,0.60
2018-05-19T22:45:34.868Z,0.60
2018-05-19T22:48:03.920Z,0.60
2018-05-19T22:50:32.934Z,0.50
2018-05-19T22:53:01.218Z,0.60
2018-05-19T22:55:29.523Z,0.60
2018-05-19T22:57:57.799Z,0.60
2018-05-19T23:00:26.095Z,0.57
2018-05-19T23:02:54.376Z,0.60
2018-05-19T23:05:22.672Z,0.60
2018-05-19T23:07:51.675Z,0.40
2018-05-19T23:10:19.933Z,0.60
2018-05-19T23:12:48.999Z,0.60
2018-05-19T23:15:17.279Z,0.60
2018-05-19T23:17:45.550Z,0.60
2018-05-19T23:20:13.848Z,0.60
2018-05-19T23:22:44.917Z,0.53
2018-05-19T23:25:13.946Z,0.60
2018-05-19T23:27:42.235Z,0.50
2018-05-19T23:30:10.525Z,0.60
2018-05-19T23:32:38.834Z,0.57
2018-05-19T23:35:07.831Z,0.60
2018-05-19T23:37:36.898Z,0.60
2018-05-19T23:40:05.190Z,0.60
2018-05-19T23:42:33.436Z,0.60
2018-05-19T23:45:01.747Z,0.60
2018-05-19T23:47:30.046Z,0.50
2018-05-19T23:49:59.094Z,0.60
2018-05-19T23:52:27.389Z,0.60
2018-05-19T23:54:55.685Z,0.60
2018-05-19T23:57:24.698Z,0.60
2018-05-19T23:59:52.971Z,0.50
